Time;durP1;ratioP1;P1;durP2;ratioP2;P2;SDS_P1;SDS_P2;PMS_P1;PMS_P2;Temp;Humidity;BMP_temperature;BMP_pressure;BME280_temperature;BME280_humidity;BME280_pressure;Samples;Min_cycle;Max_cycle;Signal;HPM_P1;HPM_P2
2021/05/01 00:01:37;;;;;;;4.50;2.28;;;18.20;47.60;;;;;;4936161;29;20265;-79
2021/05/01 00:04:05;;;;;;;2.58;2.20;;;18.20;47.70;;;;;;4936589;29;20170;-81
2021/05/01 00:06:34;;;;;;;3.58;2.20;;;18.20;47.80;;;;;;4952565;29;20163;-79
2021/05/01 00:09:09;;;;;;;2.83;2.08;;;18.10;47.80;;;;;;4952778;29;20162;-79
2021/05/01 00:11:42;;;;;;;3.00;2.15;;;18.10;47.80;;;;;;4951964;29;20202;-79
2021/05/01 00:14:09;;;;;;;3.78;2.20;;;18.10;47.60;;;;;;4936978;29;20190;-79
2021/05/01 00:16:37;;;;;;;4.07;1.95;;;18.10;47.70;;;;;;4936027;29;20177;-79
2021/05/01 00:19:06;;;;;;;3.22;2.38;;;18.10;47.40;;;;;;4936568;29;20182;-79
2021/05/01 00:21:34;;;;;;;3.50;2.20;;;18.10;47.70;;;;;;4952520;29;20162;-79
2021/05/01 00:24:02;;;;;;;2.65;2.30;;;18.10;47.70;;;;;;4939231;29;20206;-79
2021/05/01 00:26:28;;;;;;;2.40;2.08;;;18.10;47.70;;;;;;4940901;29;20166;-79
2021/05/01 00:28:56;;;;;;;3.15;2.42;;;18.20;47.70;;;;;;4940099;29;20225;-79
2021/05/01 00:31:28;;;;;;;4.35;2.50;;;18.10;47.30;;;;;;4941024;29;20162;-79
2021/05/01 00:33:57;;;;;;;2.80;2.35;;;18.10;47.60;;;;;;4940712;29;20230;-79
2021/05/01 00:36:23;;;;;;;3.00;2.10;;;18.10;47.60;;;;;;4940953;29;20261;-80
2021/05/01 00:38:49;;;;;;;2.63;1.90;;;18.10;47.50;;;;;;4940106;29;20226;-79
2021/05/01 00:41:24;;;;;;;2.28;2.03;;;18.10;47.60;;;;;;4940257;29;20182;-79
2021/05/01 00:43:52;;;;;;;3.88;1.95;;;18.20;47.50;;;;;;4956650;29;20158;-79
2021/05/01 00:46:18;;;;;;;3.10;2.28;;;18.20;47.70;;;;;;4956404;29;20253;-79
2021/05/01 00:48:44;;;;;;;3.35;2.22;;;18.10;47.60;;;;;;4940725;29;20167;-79
2021/05/01 00:51:10;;;;;;;2.88;2.33;;;18.10;47.60;;;;;;4940077;29;20162;-79
2021/05/01 00:53:41;;;;;;;2.35;2.03;;;18.10;47.50;;;;;;4956549;29;20206;-79
2021/05/01 00:56:10;;;;;;;2.30;2.10;;;18.10;47.60;;;;;;4940581;29;20170;-79
2021/05/01 00:58:37;;;;;;;3.40;2.08;;;18.10;47.60;;;;;;4940539;29;20183;-79
2021/05/01 01:03:35;;;;;;;2.50;2.20;;;18.20;47.50;;;;;;4956942;29;20170;-79
2021/05/01 01:06:01;;;;;;;4.03;2.25;;;18.10;47.70;;;;;;4940237;29;20202;-79
2021/05/01 01:08:30;;;;;;;4.15;2.25;;;18.10;47.50;;;;;;4940399;29;20625;-79
2021/05/01 01:10:58;;;;;;;2.45;2.00;;;18.10;47.20;;;;;;4940548;29;20188;-79
2021/05/01 01:13:24;;;;;;;2.55;2.15;;;18.10;47.50;;;;;;4956834;29;20210;-79
2021/05/01 01:15:52;;;;;;;2.97;2.13;;;18.10;47.80;;;;;;4940763;29;20170;-79
2021/05/01 01:18:18;;;;;;;3.72;2.05;;;18.10;47.70;;;;;;4940599;29;20175;-79
2021/05/01 01:20:44;;;;;;;2.55;2.30;;;18.10;47.60;;;;;;4940389;29;20166;-79
2021/05/01 01:23:11;;;;;;;2.70;2.17;;;18.10;47.80;;;;;;4940616;29;20208;-79
2021/05/01 01:25:40;;;;;;;2.88;2.25;;;18.10;47.50;;;;;;4956427;29;20186;-80
2021/05/01 01:28:06;;;;;;;2.70;1.95;;;18.10;47.60;;;;;;4941208;29;20325;-79
2021/05/01 01:30:33;;;;;;;2.40;1.85;;;18.10;47.50;;;;;;4956827;29;20614;-79
2021/05/01 01:33:03;;;;;;;3.03;2.13;;;18.10;47.50;;;;;;4940337;29;20205;-80
2021/05/01 01:35:31;;;;;;;2.40;2.20;;;18.10;47.40;;;;;;4955380;29;20178;-79
2021/05/01 01:37:56;;;;;;;2.55;2.17;;;18.00;47.40;;;;;;4941645;29;20221;-79
2021/05/01 01:40:26;;;;;;;2.67;2.00;;;18.10;47.50;;;;;;4942731;29;20165;-79
2021/05/01 01:42:53;;;;;;;2.47;2.17;;;18.10;47.50;;;;;;4942791;29;20169;-79
2021/05/01 01:45:23;;;;;;;2.90;1.88;;;18.10;47.50;;;;;;4959236;29;20189;-79
2021/05/01 01:47:49;;;;;;;2.60;2.13;;;18.10;47.40;;;;;;4943322;29;20161;-80
2021/05/01 01:50:17;;;;;;;2.75;2.10;;;18.10;47.40;;;;;;4943468;29;20165;-79
2021/05/01 01:52:44;;;;;;;2.40;2.15;;;18.10;47.60;;;;;;4959072;29;20158;-79
2021/05/01 01:55:16;;;;;;;3.15;2.22;;;18.10;47.80;;;;;;4959355;29;20154;-79
2021/05/01 01:57:43;;;;;;;2.40;2.00;;;18.10;47.60;;;;;;4958824;29;20157;-79
2021/05/01 02:00:11;;;;;;;2.30;1.83;;;18.00;47.50;;;;;;4942440;29;20164;-79
2021/05/01 02:02:39;;;;;;;4.20;2.20;;;18.00;47.50;;;;;;4942335;29;20170;-79
2021/05/01 02:05:08;;;;;;;3.83;2.33;;;18.10;47.60;;;;;;4958161;29;20164;-79
2021/05/01 02:07:40;;;;;;;2.83;2.00;;;18.00;47.60;;;;;;4974957;29;20149;-79
2021/05/01 02:10:08;;;;;;;2.97;2.38;;;18.10;47.60;;;;;;4942842;29;20173;-79
2021/05/01 02:12:37;;;;;;;2.30;2.10;;;18.10;47.50;;;;;;4975316;29;20154;-79
2021/05/01 02:15:06;;;;;;;2.65;2.03;;;18.00;47.80;;;;;;4942814;29;20228;-79
2021/05/01 02:17:43;;;;;;;2.20;2.00;;;18.10;47.50;;;;;;4976031;29;20167;-79
2021/05/01 02:20:11;;;;;;;3.13;2.30;;;18.00;47.50;;;;;;4975113;29;20217;-80
2021/05/01 02:22:39;;;;;;;2.47;2.10;;;18.00;47.60;;;;;;4942461;29;20169;-79
2021/05/01 02:25:08;;;;;;;3.00;2.10;;;18.00;47.60;;;;;;4957730;29;20186;-79
2021/05/01 02:27:41;;;;;;;3.08;2.40;;;18.00;47.50;;;;;;4974695;29;20181;-79
2021/05/01 02:30:10;;;;;;;2.75;2.03;;;18.00;47.50;;;;;;4958405;29;20161;-79
2021/05/01 02:32:36;;;;;;;2.35;2.08;;;18.00;47.60;;;;;;4957492;29;20162;-79
2021/05/01 02:35:08;;;;;;;2.63;2.20;;;18.00;47.50;;;;;;4957645;29;20158;-79
2021/05/01 02:37:35;;;;;;;3.13;2.13;;;18.00;47.50;;;;;;4958356;29;20159;-79
2021/05/01 02:40:03;;;;;;;2.88;2.15;;;18.00;47.50;;;;;;4939035;29;20225;-79
2021/05/01 02:42:29;;;;;;;3.00;2.20;;;18.00;47.50;;;;;;4937848;29;20170;-79
2021/05/01 02:44:55;;;;;;;2.78;2.25;;;17.90;47.70;;;;;;4938045;29;20189;-79
2021/05/01 02:47:21;;;;;;;4.25;2.40;;;18.00;47.30;;;;;;4937166;29;20174;-79
2021/05/01 02:49:52;;;;;;;2.65;2.25;;;18.00;47.50;;;;;;4954428;29;20158;-79
2021/05/01 02:52:19;;;;;;;3.65;2.38;;;18.00;47.60;;;;;;4938656;29;20586;-79
2021/05/01 02:54:45;;;;;;;2.20;2.00;;;18.00;47.30;;;;;;4937362;29;20205;-79
2021/05/01 02:57:11;;;;;;;3.08;2.30;;;18.00;47.20;;;;;;4953960;29;20186;-79
2021/05/01 02:59:37;;;;;;;2.65;2.22;;;18.00;47.50;;;;;;4937759;29;20606;-79
2021/05/01 03:02:04;;;;;;;5.20;2.17;;;18.00;47.60;;;;;;4953619;29;20162;-79
2021/05/01 03:04:31;;;;;;;3.42;2.03;;;18.00;47.60;;;;;;4954467;29;20162;-79
2021/05/01 03:07:03;;;;;;;3.42;2.15;;;18.00;47.60;;;;;;4953620;29;20178;-79
2021/05/01 03:09:32;;;;;;;3.17;2.08;;;17.90;47.40;;;;;;4954141;29;20158;-79
2021/05/01 03:11:59;;;;;;;4.07;2.00;;;18.00;47.50;;;;;;4937624;29;20166;-79
2021/05/01 03:14:26;;;;;;;2.72;2.40;;;18.00;47.50;;;;;;4937775;29;20209;-79
2021/05/01 03:16:55;;;;;;;2.97;2.03;;;18.00;47.60;;;;;;4937242;29;20538;-80
2021/05/01 03:19:22;;;;;;;2.90;2.20;;;18.00;47.60;;;;;;4953850;29;20166;-79
2021/05/01 03:21:51;;;;;;;3.40;2.17;;;17.90;47.60;;;;;;4937146;29;20166;-79
2021/05/01 03:24:17;;;;;;;3.20;2.22;;;17.90;47.60;;;;;;4936482;29;20233;-79
2021/05/01 03:26:51;;;;;;;3.13;2.25;;;17.90;47.70;;;;;;4936028;29;20177;-79
2021/05/01 03:29:18;;;;;;;3.60;2.28;;;17.90;47.60;;;;;;4934844;29;20219;-79
2021/05/01 03:31:50;;;;;;;2.67;2.17;;;17.90;47.40;;;;;;4952206;29;20162;-79
2021/05/01 03:34:17;;;;;;;2.90;2.13;;;17.90;47.50;;;;;;4951029;29;20198;-80
2021/05/01 03:36:51;;;;;;;2.38;2.15;;;17.90;47.50;;;;;;4950047;29;20162;-79
2021/05/01 03:39:17;;;;;;;3.45;2.20;;;17.90;47.30;;;;;;4962610;29;20600;-79
2021/05/01 03:41:44;;;;;;;2.78;2.15;;;18.00;47.30;;;;;;4951855;29;20233;-79
2021/05/01 03:44:19;;;;;;;2.45;1.92;;;18.00;47.50;;;;;;4969230;29;20162;-79
2021/05/01 03:46:46;;;;;;;4.10;2.42;;;18.00;47.30;;;;;;4969003;29;20161;-80
2021/05/01 03:49:11;;;;;;;3.60;2.20;;;18.00;47.30;;;;;;4968814;29;20157;-79
2021/05/01 03:51:37;;;;;;;2.05;1.85;;;17.90;47.30;;;;;;4952220;29;20316;-79
2021/05/01 03:54:03;;;;;;;2.65;2.13;;;18.00;47.40;;;;;;4951738;29;20201;-79
2021/05/01 03:56:32;;;;;;;2.55;2.17;;;17.90;47.30;;;;;;4968955;29;20168;-79
2021/05/01 03:58:58;;;;;;;2.20;1.90;;;18.00;48.00;;;;;;4955324;29;20185;-79
2021/05/01 04:01:24;;;;;;;4.20;2.25;;;18.00;47.30;;;;;;4955284;29;20166;-79
2021/05/01 04:03:50;;;;;;;3.13;2.15;;;18.00;47.20;;;;;;4972611;29;20193;-79
2021/05/01 04:06:16;;;;;;;2.92;2.30;;;18.00;47.20;;;;;;4971936;29;20169;-79
2021/05/01 04:08:44;;;;;;;2.85;2.30;;;18.00;47.10;;;;;;4955164;29;20579;-79
2021/05/01 04:11:19;;;;;;;3.45;2.40;;;18.00;47.00;;;;;;4938490;29;20189;-79
2021/05/01 04:13:47;;;;;;;2.42;2.13;;;18.00;47.20;;;;;;4952833;29;20227;-81
2021/05/01 04:16:33;;;;;;;2.33;1.90;;;18.00;47.00;;;;;;4950026;29;20166;-82
2021/05/01 04:19:03;;;;;;;3.25;2.30;;;18.00;46.80;;;;;;4950054;29;20161;-80
2021/05/01 04:21:37;;;;;;;2.53;1.90;;;18.10;46.90;;;;;;4947681;29;20161;-81
2021/05/01 04:24:06;;;;;;;2.20;1.98;;;18.00;46.60;;;;;;4951343;29;20244;-81
2021/05/01 04:26:41;;;;;;;3.97;2.25;;;18.10;46.90;;;;;;4954387;29;20201;-79
2021/05/01 04:29:07;;;;;;;3.17;2.20;;;18.10;46.80;;;;;;4955137;29;20621;-79
2021/05/01 04:31:34;;;;;;;3.08;2.38;;;18.10;46.90;;;;;;4971647;29;20171;-79
2021/05/01 04:34:09;;;;;;;3.00;2.22;;;18.00;46.90;;;;;;4971746;29;20738;-79
2021/05/01 04:36:36;;;;;;;2.42;2.10;;;18.00;46.90;;;;;;4971270;29;20242;-79
2021/05/01 04:39:01;;;;;;;2.45;2.20;;;18.00;46.90;;;;;;4935586;29;20232;-79
2021/05/01 04:41:30;;;;;;;3.47;2.22;;;18.00;46.80;;;;;;4951894;29;20182;-79
2021/05/01 04:43:56;;;;;;;2.63;2.00;;;18.00;46.90;;;;;;4951102;29;20170;-79
2021/05/01 04:46:22;;;;;;;3.22;2.22;;;18.00;46.90;;;;;;4951034;29;20214;-79
2021/05/01 04:48:47;;;;;;;2.13;1.92;;;18.10;46.90;;;;;;4952841;29;20154;-79
2021/05/01 04:51:13;;;;;;;2.45;2.20;;;18.10;46.90;;;;;;4951163;29;20245;-79
2021/05/01 04:53:40;;;;;;;3.13;2.30;;;18.10;46.70;;;;;;4952143;29;20641;-79
2021/05/01 04:56:05;;;;;;;2.78;2.15;;;18.10;46.80;;;;;;4951258;29;20154;-79
2021/05/01 04:58:34;;;;;;;2.55;2.00;;;18.10;46.60;;;;;;4950868;29;20570;-79
2021/05/01 05:01:03;;;;;;;5.13;2.22;;;18.10;46.50;;;;;;4951297;29;20641;-79
2021/05/01 05:03:31;;;;;;;2.40;2.20;;;18.20;46.70;;;;;;4951396;29;20158;-79
2021/05/01 05:05:56;;;;;;;2.70;2.25;;;18.10;46.50;;;;;;4951842;29;20205;-79
2021/05/01 05:08:25;;;;;;;3.17;2.10;;;18.10;46.60;;;;;;4950503;29;20646;-79
2021/05/01 05:10:51;;;;;;;2.38;2.10;;;18.10;46.50;;;;;;4964180;29;20244;-79
2021/05/01 05:13:25;;;;;;;2.40;1.95;;;18.10;46.50;;;;;;4969981;29;20220;-79
2021/05/01 05:15:51;;;;;;;2.58;1.90;;;18.10;46.50;;;;;;4970249;29;20177;-78
2021/05/01 05:18:19;;;;;;;2.42;1.95;;;18.20;46.40;;;;;;4938050;29;20165;-79
2021/05/01 05:20:46;;;;;;;3.25;2.00;;;18.20;46.20;;;;;;4937940;29;20176;-78
2021/05/01 05:23:12;;;;;;;3.60;2.25;;;18.20;46.10;;;;;;4938152;29;20177;-78
2021/05/01 05:25:37;;;;;;;2.20;1.98;;;18.20;46.00;;;;;;4969629;29;20218;-79
2021/05/01 05:28:04;;;;;;;2.35;2.08;;;18.20;46.10;;;;;;4937675;29;20169;-78
2021/05/01 05:30:30;;;;;;;2.25;2.03;;;18.30;46.00;;;;;;4969154;29;20177;-78
2021/05/01 05:32:56;;;;;;;3.35;2.00;;;18.30;46.00;;;;;;4969363;29;20158;-78
2021/05/01 05:35:22;;;;;;;2.80;2.33;;;18.20;46.00;;;;;;4952780;29;20640;-78
2021/05/01 05:37:48;;;;;;;2.53;2.22;;;18.30;46.10;;;;;;4953156;29;20181;-78
2021/05/01 05:40:14;;;;;;;2.47;1.92;;;18.20;46.10;;;;;;4953324;29;20260;-78
2021/05/01 05:42:49;;;;;;;2.47;2.22;;;18.30;45.90;;;;;;4953522;29;20198;-78
2021/05/01 05:45:29;;;;;;;2.55;1.98;;;18.30;45.80;;;;;;4954337;29;20164;-78
2021/05/01 05:47:57;;;;;;;2.15;1.95;;;18.30;46.00;;;;;;4940267;29;20177;-79
2021/05/01 05:50:24;;;;;;;3.75;2.10;;;18.30;45.70;;;;;;4953122;29;20157;-78
2021/05/01 05:52:52;;;;;;;2.60;2.10;;;18.40;45.60;;;;;;4937269;29;20256;-78
2021/05/01 05:55:17;;;;;;;2.30;1.88;;;18.30;45.60;;;;;;4969680;29;20211;-78
2021/05/01 05:57:55;;;;;;;2.42;2.00;;;18.30;45.70;;;;;;4968893;29;20610;-78
2021/05/01 06:00:23;;;;;;;2.70;2.17;;;18.30;45.60;;;;;;4952706;29;20153;-79
2021/05/01 06:02:59;;;;;;;3.00;2.25;;;18.30;45.80;;;;;;4968958;28;20177;-78
2021/05/01 06:05:48;;;;;;;2.50;2.20;;;18.30;45.70;;;;;;4952298;29;20169;-78
2021/05/01 06:08:16;;;;;;;2.03;1.80;;;18.30;45.80;;;;;;4967676;29;20180;-78
2021/05/01 06:10:43;;;;;;;2.95;1.90;;;18.30;45.80;;;;;;4968665;29;20181;-78
2021/05/01 06:13:10;;;;;;;2.70;2.10;;;18.30;45.70;;;;;;4936827;29;20201;-78
2021/05/01 06:15:37;;;;;;;3.50;1.75;;;18.20;46.50;;;;;;4951865;29;20154;-78
2021/05/01 06:18:03;;;;;;;3.15;2.30;;;18.20;45.60;;;;;;4936784;29;20170;-78
2021/05/01 06:20:30;;;;;;;3.03;2.33;;;18.10;45.90;;;;;;4937476;29;20519;-78
2021/05/01 06:22:59;;;;;;;2.58;1.92;;;18.00;45.90;;;;;;4968906;29;20154;-78
2021/05/01 06:25:27;;;;;;;2.40;1.98;;;18.00;45.70;;;;;;4937279;29;20177;-78
2021/05/01 06:27:53;;;;;;;2.97;1.83;;;18.10;45.70;;;;;;4952223;29;20508;-78
2021/05/01 06:30:21;;;;;;;3.08;2.05;;;18.00;46.00;;;;;;4952753;29;20169;-78
2021/05/01 06:32:50;;;;;;;2.50;2.10;;;18.00;46.20;;;;;;4952333;29;20178;-78
2021/05/01 06:35:17;;;;;;;3.45;1.90;;;18.00;46.20;;;;;;4936854;29;20175;-78
2021/05/01 06:37:52;;;;;;;3.20;2.03;;;18.00;46.10;;;;;;4952311;29;20237;-78
2021/05/01 06:40:30;;;;;;;2.58;2.38;;;18.00;46.70;;;;;;4968315;29;20224;-78
2021/05/01 06:43:02;;;;;;;3.17;2.17;;;18.00;45.70;;;;;;4953391;29;20261;-78
2021/05/01 06:45:33;;;;;;;2.40;2.20;;;18.00;46.20;;;;;;4952342;29;20173;-78
2021/05/01 06:48:06;;;;;;;4.07;2.30;;;18.00;46.00;;;;;;4951503;29;20209;-78
2021/05/01 06:50:34;;;;;;;2.67;2.13;;;17.90;46.20;;;;;;4935989;29;20186;-78
2021/05/01 06:53:08;;;;;;;2.33;2.00;;;17.90;45.90;;;;;;4935511;29;20171;-78
2021/05/01 06:55:42;;;;;;;2.50;2.30;;;18.00;45.70;;;;;;4968447;28;20224;-78
2021/05/01 06:58:09;;;;;;;2.80;2.35;;;18.00;45.90;;;;;;4967455;28;20172;-78
2021/05/01 07:00:37;;;;;;;3.30;1.90;;;17.90;46.00;;;;;;4936280;29;20157;-78
2021/05/01 07:03:07;;;;;;;2.55;2.08;;;17.90;45.50;;;;;;4967891;29;20281;-78
2021/05/01 07:05:35;;;;;;;3.85;2.30;;;18.00;46.10;;;;;;4951613;29;20158;-78
2021/05/01 07:08:02;;;;;;;2.20;2.00;;;17.90;46.20;;;;;;4968224;29;20169;-78
2021/05/01 07:10:27;;;;;;;3.83;2.20;;;17.90;45.40;;;;;;4951813;29;20696;-78
2021/05/01 07:12:55;;;;;;;2.22;2.03;;;17.90;45.60;;;;;;4952072;29;20158;-78
2021/05/01 07:15:24;;;;;;;3.33;2.53;;;17.90;45.50;;;;;;4950852;29;20154;-78
2021/05/01 07:17:53;;;;;;;3.10;2.00;;;18.00;45.60;;;;;;4936464;29;20197;-78
2021/05/01 07:20:19;;;;;;;2.95;2.17;;;18.00;45.70;;;;;;4967639;29;20526;-78
2021/05/01 07:22:45;;;;;;;2.53;1.90;;;17.90;45.60;;;;;;4951208;29;20158;-78
2021/05/01 07:25:12;;;;;;;2.80;2.25;;;17.90;45.60;;;;;;4951610;29;20165;-78
2021/05/01 07:27:57;;;;;;;3.25;2.20;;;17.90;45.80;;;;;;4951864;29;20186;-78
2021/05/01 07:30:29;;;;;;;2.55;2.00;;;18.00;45.60;;;;;;4968571;28;20157;-78
2021/05/01 07:33:25;;;;;;;2.55;2.05;;;18.00;45.70;;;;;;4968274;28;20216;-79
2021/05/01 07:35:55;;;;;;;2.20;2.00;;;17.90;45.70;;;;;;4967164;29;20173;-80
2021/05/01 07:38:22;;;;;;;2.47;2.28;;;17.90;46.00;;;;;;4951827;28;20177;-78
2021/05/01 07:40:55;;;;;;;3.53;2.33;;;17.80;45.80;;;;;;4955153;28;20236;-78
2021/05/01 07:43:24;;;;;;;3.28;2.38;;;17.90;45.00;;;;;;4938514;28;20250;-78
2021/05/01 07:46:10;;;;;;;2.75;2.35;;;17.90;45.30;;;;;;4954836;28;20172;-78
2021/05/01 07:48:37;;;;;;;2.60;2.20;;;17.90;46.00;;;;;;4967857;28;20176;-78
2021/05/01 07:51:04;;;;;;;2.88;2.20;;;17.90;45.40;;;;;;4970597;28;20181;-78
2021/05/01 07:53:30;;;;;;;3.80;2.00;;;18.00;45.50;;;;;;4970159;28;20196;-78
2021/05/01 07:55:57;;;;;;;2.47;2.10;;;18.00;45.50;;;;;;4970417;28;20161;-78
2021/05/01 07:58:24;;;;;;;4.95;2.08;;;18.00;45.60;;;;;;4953368;28;20169;-77
2021/05/01 08:00:50;;;;;;;2.63;2.33;;;18.00;45.30;;;;;;4954408;28;20175;-78
2021/05/01 08:03:16;;;;;;;2.97;2.28;;;18.00;45.40;;;;;;4938579;28;20207;-78
2021/05/01 08:05:44;;;;;;;2.28;2.08;;;18.10;45.40;;;;;;4937103;28;20165;-78
2021/05/01 08:08:13;;;;;;;3.53;2.53;;;18.10;45.20;;;;;;4969919;28;20165;-78
2021/05/01 08:10:40;;;;;;;3.03;2.50;;;18.10;45.20;;;;;;4970289;28;20497;-78
2021/05/01 08:13:07;;;;;;;2.38;2.13;;;18.10;45.30;;;;;;4986470;28;20204;-78
2021/05/01 08:15:34;;;;;;;2.20;2.00;;;18.20;45.30;;;;;;4986847;28;20216;-79
2021/05/01 08:18:01;;;;;;;2.50;2.30;;;18.20;45.20;;;;;;4969496;28;20237;-79
2021/05/01 08:20:28;;;;;;;2.53;1.88;;;18.20;45.10;;;;;;4986071;28;20221;-79
2021/05/01 08:22:58;;;;;;;2.10;1.90;;;18.20;44.90;;;;;;4985627;28;20512;-78
2021/05/01 08:25:26;;;;;;;2.38;2.17;;;18.20;45.00;;;;;;4968070;28;20177;-79
2021/05/01 08:27:54;;;;;;;2.75;2.20;;;18.20;44.70;;;;;;4967387;28;20160;-78
2021/05/01 08:30:20;;;;;;;2.30;2.10;;;18.30;44.50;;;;;;4985107;28;20220;-78
2021/05/01 08:32:46;;;;;;;2.47;2.25;;;18.30;44.80;;;;;;4985456;28;20165;-78
2021/05/01 08:35:20;;;;;;;3.63;2.40;;;18.30;44.90;;;;;;4967674;28;20208;-80
2021/05/01 08:37:46;;;;;;;2.13;1.92;;;18.30;44.80;;;;;;4967202;28;20165;-79
2021/05/01 08:40:16;;;;;;;2.20;2.00;;;18.20;44.80;;;;;;4965362;29;20225;-78
2021/05/01 08:42:45;;;;;;;2.78;2.20;;;18.20;45.00;;;;;;4965711;29;20154;-78
2021/05/01 08:45:15;;;;;;;3.47;2.13;;;18.30;44.80;;;;;;4966437;28;20154;-79
2021/05/01 08:47:46;;;;;;;2.33;2.13;;;18.30;44.70;;;;;;4967342;29;20221;-80
2021/05/01 08:51:00;;;;;;;2.70;2.28;;;18.30;44.90;;;;;;4950397;29;20185;-79
2021/05/01 08:53:29;;;;;;;2.47;1.90;;;18.30;44.60;;;;;;4924442;29;20225;-80
2021/05/01 08:55:55;;;;;;;2.60;2.03;;;18.30;44.70;;;;;;4908485;29;20167;-78
2021/05/01 08:58:21;;;;;;;2.28;2.08;;;18.30;45.00;;;;;;4893486;29;20179;-81
2021/05/01 09:00:50;;;;;;;2.33;2.03;;;18.20;44.90;;;;;;4923166;29;20193;-80
2021/05/01 09:03:22;;;;;;;2.85;2.10;;;18.30;44.80;;;;;;4910559;29;20233;-81
2021/05/01 09:05:48;;;;;;;2.80;2.30;;;18.30;44.40;;;;;;4924751;29;20195;-81
2021/05/01 09:08:14;;;;;;;2.40;1.98;;;18.30;44.60;;;;;;4909704;29;20167;-79
2021/05/01 09:11:04;;;;;;;2.20;2.00;;;18.30;45.00;;;;;;4893119;29;20179;-80
2021/05/01 09:13:46;;;;;;;4.35;2.20;;;18.30;44.80;;;;;;4926145;29;20273;-79
2021/05/01 09:16:18;;;;;;;2.20;2.00;;;18.30;45.00;;;;;;4926383;29;20190;-81
2021/05/01 09:18:58;;;;;;;3.65;2.00;;;18.20;45.20;;;;;;4925341;29;20182;-81
2021/05/01 09:21:26;;;;;;;2.42;1.80;;;18.20;45.20;;;;;;4909362;29;20188;-80
2021/05/01 09:23:53;;;;;;;4.80;2.47;;;18.20;45.00;;;;;;4891544;29;20198;-80
2021/05/01 09:26:32;;;;;;;2.38;2.08;;;18.30;44.90;;;;;;4901316;29;20216;-82
2021/05/01 09:29:01;;;;;;;2.80;2.10;;;18.30;45.00;;;;;;4895579;29;20186;-80
2021/05/01 09:31:28;;;;;;;4.35;2.35;;;18.30;45.00;;;;;;4929923;29;20163;-81
2021/05/01 09:33:57;;;;;;;2.30;2.10;;;18.20;45.20;;;;;;4932263;29;20210;-80
2021/05/01 09:36:42;;;;;;;2.45;2.25;;;18.20;45.20;;;;;;4933496;29;20159;-80
2021/05/01 09:39:10;;;;;;;2.55;2.35;;;18.20;45.20;;;;;;4929444;29;20218;-80
2021/05/01 09:41:43;;;;;;;4.22;2.30;;;18.30;44.70;;;;;;4915704;29;20219;-80
2021/05/01 09:44:17;;;;;;;2.67;2.13;;;18.30;45.00;;;;;;4952099;29;20170;-81
2021/05/01 09:46:49;;;;;;;2.50;2.20;;;18.40;44.70;;;;;;4931451;29;20166;-81
2021/05/01 09:49:22;;;;;;;2.95;2.20;;;18.50;44.70;;;;;;4948582;29;20194;-81
2021/05/01 09:52:06;;;;;;;2.53;2.00;;;18.40;44.60;;;;;;4948767;29;20700;-81
2021/05/01 09:54:40;;;;;;;3.65;2.33;;;18.40;44.70;;;;;;4948506;29;20198;-80
2021/05/01 09:57:13;;;;;;;2.53;2.28;;;18.50;44.70;;;;;;4950188;29;20636;-80
2021/05/01 09:59:44;;;;;;;3.95;2.33;;;18.40;45.00;;;;;;4947326;29;20166;-80
2021/05/01 10:02:22;;;;;;;3.58;2.25;;;18.40;45.10;;;;;;4948300;29;20227;-81
2021/05/01 10:05:19;;;;;;;2.75;2.10;;;18.40;45.00;;;;;;4947765;29;20174;-80
2021/05/01 10:07:52;;;;;;;2.88;2.30;;;18.40;45.00;;;;;;4947826;29;20190;-80
2021/05/01 10:10:19;;;;;;;4.25;2.17;;;18.40;45.00;;;;;;4968302;29;20192;-81
2021/05/01 10:12:45;;;;;;;3.80;2.17;;;18.40;44.90;;;;;;4968641;29;20196;-80
2021/05/01 10:15:43;;;;;;;4.82;2.17;;;18.40;45.00;;;;;;4938253;29;20193;-81
2021/05/01 10:18:16;;;;;;;2.92;2.10;;;18.40;45.00;;;;;;4969139;29;20212;-81
2021/05/01 10:21:06;;;;;;;2.58;2.38;;;18.50;44.90;;;;;;4923688;29;20166;-81
2021/05/01 10:23:35;;;;;;;3.28;2.20;;;18.50;45.00;;;;;;4925081;29;20171;-80
2021/05/01 10:26:26;;;;;;;3.40;2.20;;;18.50;44.90;;;;;;4886094;29;20174;-80
2021/05/01 10:28:58;;;;;;;2.85;2.28;;;18.50;45.20;;;;;;4904293;29;20189;-81
2021/05/01 10:31:24;;;;;;;3.58;2.22;;;18.50;44.80;;;;;;4918404;29;20186;-80
2021/05/01 10:33:59;;;;;;;5.28;2.17;;;18.50;45.00;;;;;;4917841;29;20225;-80
2021/05/01 10:36:36;;;;;;;3.50;2.20;;;18.50;44.90;;;;;;4931223;29;20193;-82
2021/05/01 10:39:06;;;;;;;3.08;2.10;;;18.60;44.60;;;;;;4902967;29;20266;-81
2021/05/01 10:41:35;;;;;;;2.38;2.10;;;18.60;44.80;;;;;;4901899;29;20186;-82
2021/05/01 10:44:02;;;;;;;2.78;2.35;;;18.60;45.10;;;;;;4918981;29;20187;-82
2021/05/01 10:46:32;;;;;;;3.70;2.13;;;18.50;45.20;;;;;;4908130;29;20183;-80
2021/05/01 10:49:03;;;;;;;10.98;2.40;;;18.50;45.20;;;;;;4917841;29;20222;-83
2021/05/01 10:51:30;;;;;;;2.90;2.10;;;18.50;45.50;;;;;;4917075;29;20167;-81
2021/05/01 10:54:12;;;;;;;4.70;2.40;;;18.50;45.10;;;;;;4915735;29;20191;-81
2021/05/01 10:56:46;;;;;;;3.30;2.25;;;18.50;45.20;;;;;;4900613;29;20651;-81
2021/05/01 10:59:14;;;;;;;3.67;2.00;;;18.50;45.30;;;;;;4902397;29;20164;-81
2021/05/01 11:01:48;;;;;;;3.17;2.13;;;18.50;45.30;;;;;;4902865;29;20211;-80
2021/05/01 11:04:19;;;;;;;3.95;2.30;;;18.50;45.40;;;;;;4907228;29;20171;-81
2021/05/01 11:06:45;;;;;;;2.78;2.22;;;18.50;45.50;;;;;;4905885;29;20247;-80
2021/05/01 11:09:12;;;;;;;2.28;2.08;;;18.50;45.50;;;;;;4903442;29;20199;-81
2021/05/01 11:11:40;;;;;;;2.80;2.28;;;18.50;45.30;;;;;;4904477;29;20569;-81
2021/05/01 11:14:24;;;;;;;7.65;2.47;;;18.60;45.50;;;;;;4904502;29;20191;-80
2021/05/01 11:16:53;;;;;;;3.25;2.63;;;18.50;45.50;;;;;;4888830;29;20239;-81
2021/05/01 11:19:20;;;;;;;2.47;2.20;;;18.50;45.60;;;;;;4903873;29;20176;-81
2021/05/01 11:21:47;;;;;;;2.50;2.15;;;18.50;45.50;;;;;;4903774;29;20164;-81
2021/05/01 11:24:16;;;;;;;2.95;2.22;;;18.50;45.60;;;;;;4905456;29;20195;-80
2021/05/01 11:26:45;;;;;;;2.25;1.92;;;18.50;45.70;;;;;;4889880;29;20178;-82
2021/05/01 11:29:16;;;;;;;3.90;2.10;;;18.50;45.60;;;;;;4904392;29;20525;-82
2021/05/01 11:31:46;;;;;;;3.35;2.35;;;18.60;45.70;;;;;;4872084;29;20167;-82
2021/05/01 11:34:13;;;;;;;6.75;2.58;;;18.50;45.70;;;;;;4875124;29;20720;-82
2021/05/01 11:37:17;;;;;;;4.68;2.35;;;18.50;45.60;;;;;;4875190;29;20210;-82
2021/05/01 11:39:44;;;;;;;4.60;2.50;;;18.50;45.70;;;;;;4914278;29;20293;-81
2021/05/01 11:42:48;;;;;;;4.07;2.35;;;18.50;45.70;;;;;;4905722;29;20582;-82
2021/05/01 11:45:46;;;;;;;3.08;2.15;;;18.50;45.70;;;;;;4940217;29;20176;-81
2021/05/01 11:48:17;;;;;;;3.35;2.50;;;18.50;45.70;;;;;;4924447;29;20250;-81
2021/05/01 11:50:42;;;;;;;2.78;2.00;;;18.50;45.60;;;;;;4905471;29;20226;-80
2021/05/01 11:53:25;;;;;;;5.47;2.28;;;18.60;45.50;;;;;;4903985;29;20615;-81
2021/05/01 11:56:07;;;;;;;3.17;2.42;;;18.50;45.40;;;;;;4923204;29;20155;-81
2021/05/01 11:58:34;;;;;;;2.53;2.25;;;18.50;45.70;;;;;;4921556;29;20151;-81
2021/05/01 12:01:17;;;;;;;3.45;2.33;;;18.50;45.70;;;;;;4906189;29;20163;-81
2021/05/01 12:03:53;;;;;;;4.13;2.25;;;18.60;45.60;;;;;;4906856;29;20191;-81
2021/05/01 12:06:40;;;;;;;4.10;2.17;;;18.50;45.80;;;;;;4922594;29;20218;-80
2021/05/01 12:09:43;;;;;;;4.35;2.42;;;18.50;45.70;;;;;;4919939;29;20168;-81
2021/05/01 12:12:33;;;;;;;5.93;2.20;;;18.50;45.80;;;;;;4915858;29;20313;-81
2021/05/01 12:15:37;;;;;;;4.25;2.22;;;18.50;45.60;;;;;;4898273;29;20234;-81
2021/05/01 12:18:09;;;;;;;4.47;2.25;;;18.60;45.50;;;;;;4884415;29;20198;-81
2021/05/01 12:21:04;;;;;;;7.63;2.30;;;18.60;45.50;;;;;;4902279;29;20191;-80
2021/05/01 12:24:03;;;;;;;3.38;2.38;;;18.60;45.70;;;;;;4902447;29;20191;-81
2021/05/01 12:26:39;;;;;;;4.55;2.28;;;18.50;45.60;;;;;;4886059;29;20172;-80
2021/05/01 12:29:35;;;;;;;4.35;2.40;;;18.60;45.60;;;;;;4911231;29;20175;-80
2021/05/01 12:32:11;;;;;;;5.00;2.30;;;18.60;45.50;;;;;;4906249;29;20214;-80
2021/05/01 12:34:49;;;;;;;3.50;2.70;;;18.60;45.50;;;;;;4906756;29;20210;-81
2021/05/01 12:37:23;;;;;;;5.30;2.38;;;18.60;45.60;;;;;;4906776;29;20170;-81
2021/05/01 12:39:48;;;;;;;7.18;2.33;;;18.50;45.80;;;;;;4917226;29;20238;-81
2021/05/01 12:42:21;;;;;;;4.80;2.20;;;18.50;45.90;;;;;;4941831;29;20601;-81
2021/05/01 12:44:48;;;;;;;5.78;2.20;;;18.50;45.90;;;;;;4925668;29;20170;-81
2021/05/01 12:47:35;;;;;;;6.90;2.47;;;18.50;45.70;;;;;;4909261;29;20261;-81
2021/05/01 12:50:12;;;;;;;6.07;2.47;;;18.50;46.00;;;;;;4940676;29;20170;-80
2021/05/01 12:52:41;;;;;;;6.00;2.38;;;18.50;46.00;;;;;;4941475;29;20161;-81
2021/05/01 12:55:08;;;;;;;5.15;2.40;;;18.50;45.90;;;;;;4909602;29;20265;-80
2021/05/01 12:57:35;;;;;;;4.30;2.38;;;18.50;45.90;;;;;;4925256;29;20171;-81
2021/05/01 13:00:20;;;;;;;5.18;2.40;;;18.50;45.80;;;;;;4909977;29;20166;-80
2021/05/01 13:03:05;;;;;;;3.65;2.10;;;18.60;45.70;;;;;;4942263;29;20158;-80
2021/05/01 13:05:33;;;;;;;6.38;2.72;;;18.60;45.80;;;;;;4941912;29;20177;-80
2021/05/01 13:08:01;;;;;;;5.57;2.50;;;18.60;45.80;;;;;;4910753;29;20174;-80
2021/05/01 13:10:27;;;;;;;3.13;2.40;;;18.60;45.80;;;;;;4909849;29;20621;-80